createdAt,value
2019-05-10T00:00:12.561Z,991.61
2019-05-10T00:01:12.549Z,991.63
2019-05-10T00:02:12.535Z,991.63
2019-05-10T00:03:12.523Z,991.68
2019-05-10T00:04:12.513Z,991.66
2019-05-10T00:05:12.518Z,991.69
2019-05-10T00:06:12.503Z,991.71
2019-05-10T00:07:12.476Z,991.72
2019-05-10T00:08:12.467Z,991.70
2019-05-10T00:09:12.456Z,991.69
2019-05-10T00:10:12.465Z,991.81
2019-05-10T00:11:12.434Z,991.72
2019-05-10T00:12:12.426Z,991.67
2019-05-10T00:13:12.411Z,991.68
2019-05-10T00:14:12.398Z,991.72
2019-05-10T00:15:12.407Z,991.73
2019-05-10T00:16:12.378Z,991.65
2019-05-10T00:17:12.366Z,991.70
2019-05-10T00:18:12.353Z,991.72
2019-05-10T00:19:12.342Z,991.70
2019-05-10T00:20:12.350Z,991.70
2019-05-10T00:21:12.319Z,991.72
2019-05-10T00:22:12.307Z,991.70
2019-05-10T00:23:12.301Z,991.75
2019-05-10T00:24:12.284Z,991.67
2019-05-10T00:25:12.293Z,991.72
2019-05-10T00:26:12.267Z,991.70
2019-05-10T00:27:12.252Z,991.68
2019-05-10T00:28:12.244Z,991.75
2019-05-10T00:29:12.227Z,991.68
2019-05-10T00:30:12.239Z,991.74
2019-05-10T00:31:12.206Z,991.71
2019-05-10T00:32:12.197Z,991.74
2019-05-10T00:33:12.181Z,991.72
2019-05-10T00:34:12.172Z,991.65
2019-05-10T00:35:12.162Z,991.73
2019-05-10T00:36:12.169Z,991.76
2019-05-10T00:37:12.136Z,991.70
2019-05-10T00:38:12.131Z,991.74
2019-05-10T00:39:12.116Z,991.75
2019-05-10T00:40:12.113Z,991.69
2019-05-10T00:41:12.110Z,991.79
2019-05-10T00:42:12.090Z,991.67
2019-05-10T00:43:12.071Z,991.71
2019-05-10T00:44:12.058Z,991.72
2019-05-10T00:45:12.048Z,991.77
2019-05-10T00:46:12.054Z,991.77
2019-05-10T00:47:12.024Z,991.76
2019-05-10T00:48:12.013Z,991.75
2019-05-10T00:49:12.005Z,991.77
2019-05-10T00:50:11.990Z,991.73
2019-05-10T00:51:12.003Z,991.73
2019-05-10T00:52:11.970Z,991.75
2019-05-10T00:53:11.960Z,991.85
2019-05-10T00:54:11.949Z,991.75
2019-05-10T00:55:19.045Z,991.76
2019-05-10T00:56:12.943Z,991.75
2019-05-10T00:57:11.919Z,991.75
2019-05-10T00:58:11.901Z,991.71
2019-05-10T00:59:11.889Z,991.85
2019-05-10T01:00:11.881Z,991.69
2019-05-10T01:01:11.867Z,991.76
2019-05-10T01:02:11.873Z,991.73
2019-05-10T01:03:11.842Z,991.72
2019-05-10T01:04:11.834Z,991.67
2019-05-10T01:05:11.820Z,991.69
2019-05-10T01:06:11.810Z,991.71
2019-05-10T01:07:11.816Z,991.73
2019-05-10T01:08:11.786Z,991.73
2019-05-10T01:09:11.773Z,991.67
2019-05-10T01:10:11.761Z,991.71
2019-05-10T01:11:11.772Z,991.77
2019-05-10T01:12:11.760Z,991.71
2019-05-10T01:13:11.727Z,991.75
2019-05-10T01:14:11.718Z,991.77
2019-05-10T01:15:11.715Z,991.76
2019-05-10T01:16:11.697Z,991.77
2019-05-10T01:17:11.707Z,991.78
2019-05-10T01:18:11.674Z,991.79
2019-05-10T01:19:11.660Z,991.78
2019-05-10T01:20:11.648Z,991.77
2019-05-10T01:21:11.644Z,991.83
2019-05-10T01:22:11.628Z,991.83
2019-05-10T01:23:11.635Z,991.72
2019-05-10T01:24:11.610Z,991.75
2019-05-10T01:25:11.593Z,991.73
2019-05-10T01:26:11.582Z,991.76
2019-05-10T01:27:11.572Z,991.73
2019-05-10T01:28:11.577Z,991.79
2019-05-10T01:29:11.585Z,991.78
2019-05-10T01:30:11.534Z,991.76
2019-05-10T01:31:11.528Z,991.75
2019-05-10T01:32:11.514Z,991.68
2019-05-10T01:33:11.520Z,991.75
2019-05-10T01:34:11.494Z,991.76
2019-05-10T01:35:11.481Z,991.73
2019-05-10T01:36:11.466Z,991.78
2019-05-10T01:37:11.456Z,991.77
2019-05-10T01:38:11.462Z,991.74
2019-05-10T01:39:11.435Z,991.83
2019-05-10T01:40:11.428Z,991.75
2019-05-10T01:41:11.410Z,991.82
2019-05-10T01:42:11.402Z,991.83
2019-05-10T01:43:11.410Z,991.80
2019-05-10T01:44:11.376Z,991.81
2019-05-10T01:45:11.366Z,991.79
2019-05-10T01:46:11.353Z,991.77
2019-05-10T01:47:11.341Z,991.81
2019-05-10T01:48:11.353Z,991.78
2019-05-10T01:49:11.320Z,991.81
2019-05-10T01:50:11.311Z,991.84
2019-05-10T01:51:11.296Z,991.86
2019-05-10T01:52:11.287Z,991.80
2019-05-10T01:53:11.275Z,991.82
2019-05-10T01:54:11.285Z,991.85
2019-05-10T01:55:11.251Z,991.87
2019-05-10T01:56:11.244Z,991.80
2019-05-10T01:57:11.230Z,991.82
2019-05-10T01:58:11.216Z,991.82
2019-05-10T01:59:11.225Z,991.87
2019-05-10T02:00:11.196Z,991.92
2019-05-10T02:01:11.181Z,991.82
2019-05-10T02:02:11.169Z,991.91
2019-05-10T02:03:11.246Z,991.84
2019-05-10T02:04:11.169Z,991.95
2019-05-10T02:05:11.138Z,991.87
2019-05-10T02:06:11.126Z,991.90
2019-05-10T02:07:11.122Z,991.96
2019-05-10T02:08:11.108Z,991.90
2019-05-10T02:09:11.119Z,991.87
2019-05-10T02:10:11.080Z,991.88
2019-05-10T02:11:11.072Z,991.98
2019-05-10T02:12:11.069Z,991.89
2019-05-10T02:13:11.053Z,991.92
2019-05-10T02:14:11.056Z,991.98
2019-05-10T02:15:11.033Z,992.00
2019-05-10T02:16:11.024Z,991.97
2019-05-10T02:17:11.006Z,991.96
2019-05-10T02:18:10.994Z,992.01
2019-05-10T02:19:10.981Z,991.94
2019-05-10T02:20:10.986Z,991.99
2019-05-10T02:21:10.957Z,991.97
2019-05-10T02:22:10.946Z,991.98
2019-05-10T02:23:10.969Z,992.04
2019-05-10T02:24:10.943Z,992.01
2019-05-10T02:25:10.918Z,991.96
2019-05-10T02:26:10.902Z,992.04
2019-05-10T02:27:10.887Z,992.00
2019-05-10T02:28:10.876Z,991.97
2019-05-10T02:29:10.911Z,992.06
2019-05-10T02:30:10.859Z,992.06
2019-05-10T02:31:10.846Z,992.00
2019-05-10T02:32:10.832Z,991.96
2019-05-10T02:33:10.828Z,992.05
2019-05-10T02:34:10.813Z,991.97
2019-05-10T02:35:10.818Z,992.00
2019-05-10T02:36:10.786Z,992.03
2019-05-10T02:37:10.778Z,992.06
2019-05-10T02:38:10.763Z,991.96
2019-05-10T02:39:10.771Z,991.97
2019-05-10T02:40:10.814Z,992.06
2019-05-10T02:41:10.734Z,991.98
2019-05-10T02:42:10.722Z,992.02
2019-05-10T02:43:10.712Z,991.99
2019-05-10T02:44:10.696Z,991.98
2019-05-10T02:45:10.705Z,991.98
2019-05-10T02:46:10.679Z,992.05
2019-05-10T02:47:10.659Z,992.14
2019-05-10T02:48:10.650Z,992.00
2019-05-10T02:49:10.640Z,992.03
2019-05-10T02:50:10.646Z,992.10
2019-05-10T02:51:10.641Z,992.06
2019-05-10T02:52:10.605Z,992.20
2019-05-10T02:53:10.591Z,992.03
2019-05-10T02:54:10.584Z,992.13
2019-05-10T02:55:10.591Z,992.11
2019-05-10T02:56:29.097Z,992.12
2019-05-10T02:57:11.548Z,992.10
2019-05-10T02:58:14.916Z,992.15
2019-05-10T02:59:10.532Z,992.10
2019-05-10T03:00:10.530Z,992.10
2019-05-10T03:01:10.498Z,992.21
2019-05-10T03:02:10.486Z,992.15
2019-05-10T03:03:10.564Z,992.21
2019-05-10T03:04:10.464Z,992.08
2019-05-10T03:05:10.467Z,992.23
2019-05-10T03:06:10.445Z,992.15
2019-05-10T03:07:10.433Z,992.24
2019-05-10T03:08:10.417Z,992.25
2019-05-10T03:09:10.406Z,992.28
2019-05-10T03:10:10.413Z,992.33
2019-05-10T03:11:10.382Z,992.26
2019-05-10T03:12:10.369Z,992.25
2019-05-10T03:13:10.362Z,992.28
2019-05-10T03:14:10.351Z,992.24
2019-05-10T03:15:10.355Z,992.27
2019-05-10T03:16:10.326Z,992.25
2019-05-10T03:17:10.314Z,992.24
2019-05-10T03:18:10.307Z,992.23
2019-05-10T03:19:10.293Z,992.21
2019-05-10T03:20:10.299Z,992.28
2019-05-10T03:21:10.273Z,992.20
2019-05-10T03:22:10.258Z,992.24
2019-05-10T03:23:10.250Z,992.21
2019-05-10T03:24:10.234Z,992.33
2019-05-10T03:25:10.247Z,992.22
2019-05-10T03:26:10.216Z,992.22
2019-05-10T03:27:10.205Z,992.16
2019-05-10T03:28:10.192Z,992.24
2019-05-10T03:29:10.179Z,992.31
2019-05-10T03:30:10.207Z,992.32
2019-05-10T03:31:10.171Z,992.33
2019-05-10T03:32:10.148Z,992.37
2019-05-10T03:33:10.134Z,992.41
2019-05-10T03:34:10.124Z,992.44
2019-05-10T03:35:10.151Z,992.42
2019-05-10T03:36:10.104Z,992.45
2019-05-10T03:37:10.091Z,992.39
2019-05-10T03:38:10.081Z,992.42
2019-05-10T03:39:10.066Z,992.44
2019-05-10T03:40:10.130Z,992.43
2019-05-10T03:41:10.043Z,992.40
2019-05-10T03:42:10.031Z,992.51
2019-05-10T03:43:10.037Z,992.48
2019-05-10T03:44:10.008Z,992.51
2019-05-10T03:45:10.017Z,992.54
2019-05-10T03:46:09.984Z,992.52
2019-05-10T03:47:09.977Z,992.51
2019-05-10T03:48:09.962Z,992.61
2019-05-10T03:49:09.952Z,992.57
2019-05-10T03:50:10.007Z,992.55
2019-05-10T03:51:09.929Z,992.56
2019-05-10T03:52:09.919Z,992.62
2019-05-10T03:53:09.913Z,992.64
2019-05-10T03:54:09.896Z,992.59
2019-05-10T03:55:09.888Z,992.62
2019-05-10T03:56:09.893Z,992.56
2019-05-10T03:57:13.582Z,992.62
2019-05-10T03:58:09.850Z,992.61
2019-05-10T03:59:09.843Z,992.70
2019-05-10T04:00:09.843Z,992.68
2019-05-10T04:01:09.814Z,992.67
2019-05-10T04:02:09.803Z,992.75
2019-05-10T04:03:09.795Z,992.66
2019-05-10T04:04:09.940Z,992.64
2019-05-10T04:05:09.784Z,992.65
2019-05-10T04:06:09.754Z,992.67
2019-05-10T04:07:09.746Z,992.71
2019-05-10T04:08:09.731Z,992.69
2019-05-10T04:09:09.721Z,992.67
2019-05-10T04:10:09.735Z,992.72
2019-05-10T04:11:09.703Z,992.77
2019-05-10T04:12:09.686Z,992.69
2019-05-10T04:13:09.680Z,992.73
2019-05-10T04:14:09.664Z,992.73
2019-05-10T04:15:09.666Z,992.76
2019-05-10T04:16:09.659Z,992.77
2019-05-10T04:17:09.653Z,992.71
2019-05-10T04:18:09.624Z,992.77
2019-05-10T04:19:09.609Z,992.74
2019-05-10T04:20:09.605Z,992.77
2019-05-10T04:21:09.607Z,992.80
2019-05-10T04:22:09.573Z,992.84
2019-05-10T04:23:09.562Z,992.79
2019-05-10T04:24:09.551Z,992.75
2019-05-10T04:25:09.641Z,992.84
2019-05-10T04:26:09.544Z,992.91
2019-05-10T04:27:09.512Z,992.83
2019-05-10T04:28:09.503Z,992.84
2019-05-10T04:29:09.492Z,992.90
2019-05-10T04:30:09.480Z,992.87
2019-05-10T04:31:09.486Z,992.97
2019-05-10T04:32:09.456Z,992.91
2019-05-10T04:33:09.449Z,993.00
2019-05-10T04:34:09.435Z,992.99
2019-05-10T04:35:09.423Z,993.01
2019-05-10T04:36:12.700Z,992.97
2019-05-10T04:37:09.400Z,993.04
2019-05-10T04:38:09.390Z,993.04
2019-05-10T04:39:09.378Z,993.07
2019-05-10T04:40:09.366Z,993.06
2019-05-10T04:41:09.403Z,993.03
2019-05-10T04:42:09.342Z,993.06
2019-05-10T04:43:09.333Z,993.05
2019-05-10T04:44:09.336Z,993.08
2019-05-10T04:45:09.308Z,993.09
2019-05-10T04:46:09.315Z,993.16
2019-05-10T04:47:09.286Z,993.17
2019-05-10T04:48:09.274Z,993.14
2019-05-10T04:49:09.273Z,993.19
2019-05-10T04:50:09.250Z,993.15
2019-05-10T04:51:09.257Z,993.17
2019-05-10T04:52:09.230Z,993.22
2019-05-10T04:53:09.217Z,993.18
2019-05-10T04:54:09.204Z,993.25
2019-05-10T04:55:24.037Z,993.24
2019-05-10T04:56:09.202Z,993.28
2019-05-10T04:57:09.170Z,993.28
2019-05-10T04:58:09.171Z,993.35
2019-05-10T04:59:09.147Z,993.27
2019-05-10T05:00:09.137Z,993.28
2019-05-10T05:01:09.164Z,993.35
2019-05-10T05:02:09.121Z,993.32
2019-05-10T05:03:09.106Z,993.40
2019-05-10T05:04:09.097Z,993.39
2019-05-10T05:05:09.077Z,993.34
2019-05-10T05:06:09.068Z,993.42
2019-05-10T05:07:09.078Z,993.48
2019-05-10T05:08:09.043Z,993.42
2019-05-10T05:09:09.028Z,993.50
2019-05-10T05:10:09.019Z,993.46
2019-05-10T05:11:09.012Z,993.42
2019-05-10T05:12:09.012Z,993.49
2019-05-10T05:13:08.982Z,993.48
2019-05-10T05:14:09.753Z,993.50
2019-05-10T05:15:08.962Z,993.51
2019-05-10T05:16:08.951Z,993.55
2019-05-10T05:17:08.960Z,993.62
2019-05-10T05:18:08.928Z,993.54
2019-05-10T05:19:08.915Z,993.57
2019-05-10T05:20:08.907Z,993.60
2019-05-10T05:21:08.892Z,993.68
2019-05-10T05:22:08.880Z,993.67
2019-05-10T05:23:08.894Z,993.66
2019-05-10T05:24:08.860Z,993.64
2019-05-10T05:25:08.849Z,993.68
2019-05-10T05:26:08.835Z,993.63
2019-05-10T05:27:08.845Z,993.77
2019-05-10T05:28:08.840Z,993.65
2019-05-10T05:29:08.803Z,993.64
2019-05-10T05:30:08.790Z,993.69
2019-05-10T05:31:08.782Z,993.66
2019-05-10T05:32:08.767Z,993.67
2019-05-10T05:33:08.776Z,993.69
2019-05-10T05:34:08.746Z,993.66
2019-05-10T05:35:08.736Z,993.74
2019-05-10T05:36:08.726Z,993.70
2019-05-10T05:37:08.712Z,993.79
2019-05-10T05:38:08.721Z,993.74
2019-05-10T05:39:08.691Z,993.77
2019-05-10T05:40:08.679Z,993.76
2019-05-10T05:41:08.667Z,993.82
2019-05-10T05:42:08.663Z,993.81
2019-05-10T05:43:09.845Z,993.80
2019-05-10T05:44:08.644Z,993.87
2019-05-10T05:45:08.629Z,993.86
2019-05-10T05:46:08.611Z,994.02
2019-05-10T05:47:08.603Z,993.89
2019-05-10T05:48:08.607Z,993.95
2019-05-10T05:49:08.581Z,993.90
2019-05-10T05:50:08.564Z,993.95
2019-05-10T05:51:08.556Z,993.97
2019-05-10T05:52:08.543Z,993.95
2019-05-10T05:53:08.550Z,994.01
2019-05-10T05:54:08.570Z,993.98
2019-05-10T05:55:08.508Z,994.01
2019-05-10T05:56:12.573Z,994.04
2019-05-10T05:57:09.495Z,994.06
2019-05-10T05:58:25.234Z,994.10
2019-05-10T05:59:09.462Z,994.07
2019-05-10T06:00:08.480Z,994.06
2019-05-10T06:01:08.452Z,994.10
2019-05-10T06:02:09.617Z,994.15
2019-05-10T06:03:08.447Z,994.15
2019-05-10T06:04:12.484Z,994.15
2019-05-10T06:05:08.406Z,994.11
2019-05-10T06:06:21.257Z,994.16
2019-05-10T06:07:09.366Z,994.19
2019-05-10T06:08:21.296Z,994.19
2019-05-10T06:09:09.344Z,994.18
2019-05-10T06:10:10.142Z,994.16
2019-05-10T06:11:09.375Z,994.21
2019-05-10T06:12:12.810Z,994.24
2019-05-10T06:13:09.312Z,994.23
2019-05-10T06:14:10.649Z,994.26
2019-05-10T06:15:08.273Z,994.26
2019-05-10T06:16:12.703Z,994.24
2019-05-10T06:17:09.247Z,994.32
2019-05-10T06:18:09.870Z,994.33
2019-05-10T06:19:08.227Z,994.28
2019-05-10T06:20:08.215Z,994.31
2019-05-10T06:21:08.201Z,994.33
2019-05-10T06:22:08.199Z,994.34
2019-05-10T06:23:08.199Z,994.30
2019-05-10T06:24:13.317Z,994.44
2019-05-10T06:25:09.158Z,994.40
2019-05-10T06:26:20.991Z,994.55
2019-05-10T06:27:09.131Z,994.43
2019-05-10T06:28:24.989Z,994.47
2019-05-10T06:29:16.359Z,994.41
2019-05-10T06:30:09.137Z,994.52
2019-05-10T06:31:08.088Z,994.53
2019-05-10T06:32:08.076Z,994.49
2019-05-10T06:33:12.568Z,994.54
2019-05-10T06:34:09.067Z,994.58
2019-05-10T06:35:08.042Z,994.59
2019-05-10T06:36:08.029Z,994.58
2019-05-10T06:37:08.026Z,994.61
2019-05-10T06:38:08.008Z,994.68
2019-05-10T06:39:08.015Z,994.62
2019-05-10T06:40:07.985Z,994.61
2019-05-10T06:41:09.980Z,994.58
2019-05-10T06:42:08.960Z,994.57
2019-05-10T06:43:13.539Z,994.68
2019-05-10T06:44:08.957Z,994.74
2019-05-10T06:45:14.474Z,994.74
2019-05-10T06:46:08.913Z,994.59
2019-05-10T06:47:09.861Z,994.72
2019-05-10T06:48:07.892Z,994.72
2019-05-10T06:49:10.474Z,994.75
2019-05-10T06:50:07.873Z,994.69
2019-05-10T06:51:09.776Z,994.69
2019-05-10T06:52:07.847Z,994.76
2019-05-10T06:53:10.805Z,994.74
2019-05-10T06:54:07.841Z,994.76
2019-05-10T06:55:07.815Z,994.79
2019-05-10T06:56:07.802Z,994.72
2019-05-10T06:57:11.290Z,994.69
2019-05-10T06:58:08.778Z,994.70
2019-05-10T06:59:13.379Z,994.74
2019-05-10T07:00:08.755Z,994.70
2019-05-10T07:01:07.743Z,994.74
2019-05-10T07:02:07.732Z,994.80
2019-05-10T07:03:07.719Z,994.84
2019-05-10T07:04:07.729Z,994.85
2019-05-10T07:05:07.709Z,994.85
2019-05-10T07:06:07.684Z,994.89
2019-05-10T07:07:10.252Z,994.91
2019-05-10T07:08:16.396Z,994.89
2019-05-10T07:09:08.670Z,994.97
2019-05-10T07:10:15.757Z,994.97
2019-05-10T07:11:08.625Z,995.05
2019-05-10T07:12:09.275Z,995.03
2019-05-10T07:13:08.636Z,995.08
2019-05-10T07:14:07.612Z,995.14
2019-05-10T07:15:07.584Z,995.13
2019-05-10T07:16:07.572Z,995.11
2019-05-10T07:17:07.561Z,995.13
2019-05-10T07:18:07.557Z,995.17
2019-05-10T07:19:07.556Z,995.23
2019-05-10T07:20:07.524Z,995.15
2019-05-10T07:21:08.756Z,995.18
2019-05-10T07:22:07.501Z,995.19
2019-05-10T07:23:07.947Z,995.23
2019-05-10T07:24:07.482Z,995.21
2019-05-10T07:25:07.858Z,995.28
2019-05-10T07:26:09.802Z,995.21
2019-05-10T07:27:07.440Z,995.30
2019-05-10T07:28:09.664Z,995.25
2019-05-10T07:29:08.423Z,995.31
2019-05-10T07:30:07.427Z,995.24
2019-05-10T07:31:07.396Z,995.28
2019-05-10T07:32:07.387Z,995.22
2019-05-10T07:33:07.372Z,995.30
2019-05-10T07:34:09.676Z,995.25
2019-05-10T07:35:08.377Z,995.29
2019-05-10T07:36:14.460Z,995.31
2019-05-10T07:37:08.326Z,995.31
2019-05-10T07:38:07.315Z,995.30
2019-05-10T07:39:08.469Z,995.39
2019-05-10T07:40:07.310Z,995.39
2019-05-10T07:41:07.291Z,995.40
2019-05-10T07:42:09.041Z,995.44
2019-05-10T07:43:07.258Z,995.43
2019-05-10T07:44:10.271Z,995.45
2019-05-10T07:45:07.259Z,995.49
2019-05-10T07:46:08.963Z,995.57
2019-05-10T07:47:07.212Z,995.51
2019-05-10T07:48:08.222Z,995.56
2019-05-10T07:49:07.189Z,995.58
2019-05-10T07:50:09.756Z,995.59
2019-05-10T07:51:07.180Z,995.57
2019-05-10T07:52:07.156Z,995.72
2019-05-10T07:53:07.142Z,995.65
2019-05-10T07:54:07.136Z,995.58
2019-05-10T07:55:10.073Z,995.56
2019-05-10T07:56:08.028Z,995.62
2019-05-10T07:57:07.098Z,995.59
2019-05-10T07:58:07.391Z,995.64
2019-05-10T07:59:07.072Z,995.59
2019-05-10T08:00:07.060Z,995.60
2019-05-10T08:01:07.068Z,995.59
2019-05-10T08:02:12.707Z,995.62
2019-05-10T08:03:16.589Z,995.63
2019-05-10T08:04:08.994Z,995.61
2019-05-10T08:05:10.816Z,995.69
2019-05-10T08:06:08.429Z,995.74
2019-05-10T08:07:10.272Z,995.73
2019-05-10T08:08:09.405Z,995.74
2019-05-10T08:09:09.548Z,995.81
2019-05-10T08:10:08.757Z,995.80
2019-05-10T08:11:08.547Z,995.77
2019-05-10T08:12:09.821Z,995.80
2019-05-10T08:13:08.539Z,995.77
2019-05-10T08:14:10.992Z,995.82
2019-05-10T08:15:08.589Z,995.83
2019-05-10T08:16:13.500Z,995.85
2019-05-10T08:17:09.041Z,995.86
2019-05-10T08:18:09.601Z,995.87
2019-05-10T08:19:06.841Z,995.90
2019-05-10T08:20:09.009Z,995.95
2019-05-10T08:21:20.969Z,995.96
2019-05-10T08:22:09.315Z,996.03
2019-05-10T08:23:06.819Z,996.00
2019-05-10T08:24:13.327Z,996.01
2019-05-10T08:25:07.770Z,996.09
2019-05-10T08:26:11.049Z,996.08
2019-05-10T08:27:12.380Z,996.07
2019-05-10T08:28:07.736Z,996.09
2019-05-10T08:29:07.630Z,996.06
2019-05-10T08:30:22.593Z,996.05
2019-05-10T08:31:07.700Z,996.05
2019-05-10T08:32:06.710Z,996.12
2019-05-10T08:33:09.908Z,996.10
2019-05-10T08:34:07.666Z,996.09
2019-05-10T08:35:15.944Z,996.09
2019-05-10T08:36:07.643Z,996.14
2019-05-10T08:37:06.649Z,996.16
2019-05-10T08:38:06.618Z,996.17
2019-05-10T08:39:10.597Z,996.14
2019-05-10T08:40:07.594Z,996.17
2019-05-10T08:41:08.094Z,996.20
2019-05-10T08:42:27.354Z,996.17
2019-05-10T08:43:10.924Z,996.13
2019-05-10T08:44:16.659Z,996.25
2019-05-10T08:45:08.871Z,996.18
2019-05-10T08:46:06.528Z,996.18
2019-05-10T08:47:07.619Z,996.22
2019-05-10T08:48:07.510Z,996.19
2019-05-10T08:49:06.494Z,996.20
2019-05-10T08:50:24.300Z,996.28
2019-05-10T08:51:07.735Z,996.42
2019-05-10T08:52:06.478Z,996.29
2019-05-10T08:53:10.935Z,996.27
2019-05-10T08:54:07.437Z,996.21
2019-05-10T08:55:06.423Z,996.22
2019-05-10T08:56:07.577Z,996.25
2019-05-10T08:57:07.417Z,996.21
2019-05-10T08:58:06.391Z,996.23
2019-05-10T08:59:09.519Z,996.27
2019-05-10T09:00:09.101Z,996.28
2019-05-10T09:01:20.533Z,996.28
2019-05-10T09:02:07.361Z,996.26
2019-05-10T09:03:15.689Z,996.27
2019-05-10T09:04:10.829Z,996.26
2019-05-10T09:05:07.305Z,996.29
2019-05-10T09:06:11.777Z,996.31
2019-05-10T09:07:07.304Z,996.30
2019-05-10T09:08:12.898Z,996.31
2019-05-10T09:09:08.504Z,996.35
2019-05-10T09:10:09.439Z,996.38
2019-05-10T09:11:07.117Z,996.40
2019-05-10T09:12:08.949Z,996.42
2019-05-10T09:13:06.213Z,996.51
2019-05-10T09:14:06.201Z,996.45
2019-05-10T09:15:10.052Z,996.47
2019-05-10T09:16:07.179Z,996.46
2019-05-10T09:17:06.192Z,996.44
2019-05-10T09:18:07.645Z,996.46
2019-05-10T09:19:06.144Z,996.50
2019-05-10T09:20:06.147Z,996.51
2019-05-10T09:21:09.302Z,996.50
2019-05-10T09:22:06.132Z,996.50
2019-05-10T09:23:08.725Z,996.47
2019-05-10T09:24:07.084Z,996.66
2019-05-10T09:25:06.074Z,996.55
2019-05-10T09:26:10.310Z,996.62
2019-05-10T09:27:07.066Z,996.67
2019-05-10T09:28:11.674Z,996.65
2019-05-10T09:29:07.027Z,996.67
2019-05-10T09:30:08.216Z,996.69
2019-05-10T09:31:18.817Z,996.75
2019-05-10T09:32:07.011Z,996.82
2019-05-10T09:33:10.611Z,996.80
2019-05-10T09:34:06.970Z,996.81
2019-05-10T09:35:09.077Z,996.78
2019-05-10T09:36:05.946Z,996.87
2019-05-10T09:37:08.046Z,996.84
2019-05-10T09:38:06.920Z,996.90
2019-05-10T09:39:09.106Z,996.90
2019-05-10T09:40:09.942Z,997.02
2019-05-10T09:41:06.886Z,997.14
2019-05-10T09:42:09.012Z,997.03
2019-05-10T09:43:09.615Z,997.05
2019-05-10T09:44:06.855Z,997.12
2019-05-10T09:45:09.377Z,997.06
2019-05-10T09:46:05.830Z,997.15
2019-05-10T09:47:05.837Z,997.02
2019-05-10T09:48:05.807Z,996.98
2019-05-10T09:49:14.556Z,997.06
2019-05-10T09:50:06.785Z,997.02
2019-05-10T09:51:05.775Z,996.92
2019-05-10T09:52:12.749Z,996.94
2019-05-10T09:53:09.469Z,996.98
2019-05-10T09:54:07.663Z,997.02
2019-05-10T09:55:12.511Z,997.10
2019-05-10T09:56:07.896Z,997.02
2019-05-10T09:57:08.045Z,997.03
2019-05-10T09:58:08.418Z,997.12
2019-05-10T09:59:08.079Z,997.10
2019-05-10T10:00:07.425Z,997.09
2019-05-10T10:01:14.882Z,997.09
2019-05-10T10:02:14.508Z,997.04
2019-05-10T10:03:08.198Z,997.12
2019-05-10T10:04:05.621Z,997.13
2019-05-10T10:05:07.501Z,997.11
2019-05-10T10:06:08.510Z,997.22
2019-05-10T10:07:06.616Z,997.16
2019-05-10T10:08:09.020Z,997.16
2019-05-10T10:09:07.418Z,997.23
2019-05-10T10:10:07.395Z,997.25
2019-05-10T10:11:11.547Z,997.29
2019-05-10T10:12:06.977Z,997.26
2019-05-10T10:13:13.517Z,997.40
2019-05-10T10:14:07.528Z,997.40
2019-05-10T10:15:09.340Z,997.42
2019-05-10T10:16:10.321Z,997.39
2019-05-10T10:17:08.274Z,997.41
2019-05-10T10:18:05.479Z,997.43
2019-05-10T10:19:07.166Z,997.48
2019-05-10T10:20:08.148Z,997.45
2019-05-10T10:21:05.424Z,997.46
2019-05-10T10:22:10.615Z,997.42
2019-05-10T10:23:07.249Z,997.43
2019-05-10T10:24:12.755Z,997.38
2019-05-10T10:25:07.479Z,997.38
2019-05-10T10:26:07.249Z,997.49
2019-05-10T10:27:07.440Z,997.42
2019-05-10T10:28:08.298Z,997.44
2019-05-10T10:29:07.279Z,997.42
2019-05-10T10:30:06.452Z,997.44
2019-05-10T10:31:08.486Z,997.48
2019-05-10T10:32:07.695Z,997.47
2019-05-10T10:33:05.848Z,997.45
2019-05-10T10:34:07.616Z,997.47
2019-05-10T10:35:07.630Z,997.50
2019-05-10T10:36:10.287Z,997.47
2019-05-10T10:37:07.884Z,997.38
2019-05-10T10:38:07.753Z,997.45
2019-05-10T10:39:07.265Z,997.48
2019-05-10T10:40:08.331Z,997.46
2019-05-10T10:41:05.193Z,997.54
2019-05-10T10:42:08.690Z,997.46
2019-05-10T10:43:07.489Z,997.51
2019-05-10T10:44:05.179Z,997.50
2019-05-10T10:45:07.257Z,997.48
2019-05-10T10:46:12.002Z,997.49
2019-05-10T10:47:08.226Z,997.52
2019-05-10T10:48:08.477Z,997.49
2019-05-10T10:49:06.125Z,997.54
2019-05-10T10:50:09.020Z,997.46
2019-05-10T10:51:08.056Z,997.51
2019-05-10T10:52:05.754Z,997.45
2019-05-10T10:53:08.025Z,997.44
2019-05-10T10:54:07.348Z,997.48
2019-05-10T10:55:05.586Z,997.54
2019-05-10T10:56:07.771Z,997.49
2019-05-10T10:57:05.011Z,997.54
2019-05-10T10:58:07.177Z,997.52
2019-05-10T10:59:07.362Z,997.49
2019-05-10T11:00:07.486Z,997.52
2019-05-10T11:01:10.559Z,997.55
2019-05-10T11:02:28.898Z,997.60
2019-05-10T11:03:05.945Z,997.67
2019-05-10T11:04:08.265Z,997.70
2019-05-10T11:05:04.940Z,997.75
2019-05-10T11:06:04.906Z,997.76
2019-05-10T11:07:10.299Z,997.71
2019-05-10T11:08:05.883Z,997.67
2019-05-10T11:09:04.874Z,997.64
2019-05-10T11:10:15.432Z,997.58
2019-05-10T11:11:05.849Z,997.52
2019-05-10T11:12:04.844Z,997.63
2019-05-10T11:13:10.983Z,997.58
2019-05-10T11:14:07.553Z,997.55
2019-05-10T11:15:04.825Z,997.57
2019-05-10T11:16:14.200Z,997.57
2019-05-10T11:17:05.778Z,997.64
2019-05-10T11:18:04.770Z,997.70
2019-05-10T11:19:13.351Z,997.67
2019-05-10T11:20:08.567Z,997.64
2019-05-10T11:21:05.733Z,997.59
2019-05-10T11:22:09.454Z,997.53
2019-05-10T11:23:05.715Z,997.54
2019-05-10T11:24:09.427Z,997.49
2019-05-10T11:25:09.630Z,997.50
2019-05-10T11:26:05.692Z,997.55
2019-05-10T11:27:07.194Z,997.57
2019-05-10T11:28:09.039Z,997.47
2019-05-10T11:29:04.640Z,997.54
2019-05-10T11:30:04.630Z,997.56
2019-05-10T11:31:04.636Z,997.54
2019-05-10T11:32:14.658Z,997.47
2019-05-10T11:33:05.591Z,997.58
2019-05-10T11:34:06.240Z,997.57
2019-05-10T11:35:05.536Z,997.54
2019-05-10T11:36:08.663Z,997.60
2019-05-10T11:37:04.548Z,997.50
2019-05-10T11:38:06.736Z,997.51
2019-05-10T11:39:06.090Z,997.57
2019-05-10T11:40:04.513Z,997.63
2019-05-10T11:41:07.118Z,997.59
2019-05-10T11:42:07.419Z,997.60
2019-05-10T11:43:04.479Z,997.63
2019-05-10T11:44:08.843Z,997.65
2019-05-10T11:45:05.454Z,997.63
2019-05-10T11:46:04.465Z,997.64
2019-05-10T11:47:04.438Z,997.68
2019-05-10T11:48:04.447Z,997.61
2019-05-10T11:49:04.410Z,997.72
2019-05-10T11:50:06.443Z,997.68
2019-05-10T11:51:05.638Z,997.72
2019-05-10T11:52:05.374Z,997.72
2019-05-10T11:53:06.763Z,997.73
2019-05-10T11:54:05.351Z,997.73
2019-05-10T11:55:04.347Z,997.78
2019-05-10T11:56:07.820Z,997.74
2019-05-10T11:57:09.769Z,997.75
2019-05-10T11:58:08.726Z,997.80
2019-05-10T11:59:05.834Z,997.85
2019-05-10T12:00:04.286Z,997.75
2019-05-10T12:01:16.375Z,997.76
2019-05-10T12:02:09.434Z,997.83
2019-05-10T12:03:11.245Z,997.84
2019-05-10T12:04:05.510Z,997.82
2019-05-10T12:05:12.240Z,997.85
2019-05-10T12:06:08.946Z,997.90
2019-05-10T12:07:08.405Z,997.86
2019-05-10T12:08:04.194Z,997.87
2019-05-10T12:09:04.791Z,997.88
2019-05-10T12:10:16.835Z,997.85
2019-05-10T12:11:14.076Z,997.86
2019-05-10T12:12:05.200Z,997.90
2019-05-10T12:13:15.043Z,997.84
2019-05-10T12:14:05.124Z,998.00
2019-05-10T12:15:04.626Z,997.95
2019-05-10T12:16:04.114Z,997.93
2019-05-10T12:17:06.324Z,997.94
2019-05-10T12:18:05.004Z,997.98
2019-05-10T12:19:15.061Z,998.00
2019-05-10T12:20:05.053Z,997.94
2019-05-10T12:21:09.433Z,997.93
2019-05-10T12:22:05.155Z,997.98
2019-05-10T12:23:04.040Z,997.94
2019-05-10T12:24:26.442Z,997.96
2019-05-10T12:25:27.400Z,997.94
2019-05-10T12:27:14.062Z,997.96
2019-05-10T12:28:04.981Z,997.98
2019-05-10T12:29:12.402Z,998.02